Terminal Aerodrome Forecast
Issued by NWS

Home | Current Version | Previous Version | Text Only | Print | Product List | Glossary On
Versions: 1 2 3 4 5 6 7 8 9 10 11 12 13 14 15 16 17 18 19 20 21 22 23 24
482
FTUS44 KLZK 232014 AAA
TAFHOT
TAF AMD
KHOT 232014Z 2320/2418 07006KT P6SM VCSH OVC004
     FM240100 09006KT 4SM -RA BR OVC007
     FM240600 09003KT 5SM -RA BR OVC005=

USA.gov is the U.S. government's official web portal to all federal, state and local government web resources and services.